sensor_id;sensor_type;location;lat;lon;timestamp;P1;durP1;ratioP1;P2;durP2;ratioP2
35042;SDS011;21230;51.170;17.024;2023-02-01T00:02:01;6.68;;;1.23;;
35042;SDS011;21230;51.170;17.024;2023-02-01T00:04:28;11.30;;;1.40;;
35042;SDS011;21230;51.170;17.024;2023-02-01T00:06:56;0.47;;;0.47;;
35042;SDS011;21230;51.170;17.024;2023-02-01T00:09:22;8.23;;;1.65;;
35042;SDS011;21230;51.170;17.024;2023-02-01T00:11:48;2.33;;;0.95;;
35042;SDS011;21230;51.170;17.024;2023-02-01T00:14:14;9.82;;;1.83;;
35042;SDS011;21230;51.170;17.024;2023-02-01T00:16:40;4.40;;;1.40;;
35042;SDS011;21230;51.170;17.024;2023-02-01T00:19:07;7.32;;;1.08;;
35042;SDS011;21230;51.170;17.024;2023-02-01T00:21:38;2.28;;;1.00;;
35042;SDS011;21230;51.170;17.024;2023-02-01T00:24:04;2.17;;;1.25;;
35042;SDS011;21230;51.170;17.024;2023-02-01T00:26:40;6.07;;;1.52;;
35042;SDS011;21230;51.170;17.024;2023-02-01T00:29:12;2.97;;;1.50;;
35042;SDS011;21230;51.170;17.024;2023-02-01T00:31:39;2.97;;;0.70;;
35042;SDS011;21230;51.170;17.024;2023-02-01T00:34:05;7.93;;;2.08;;
35042;SDS011;21230;51.170;17.024;2023-02-01T00:36:31;3.90;;;1.70;;
35042;SDS011;21230;51.170;17.024;2023-02-01T00:38:57;17.58;;;2.97;;
35042;SDS011;21230;51.170;17.024;2023-02-01T00:41:23;7.85;;;1.75;;
35042;SDS011;21230;51.170;17.024;2023-02-01T00:43:49;11.85;;;1.95;;
35042;SDS011;21230;51.170;17.024;2023-02-01T00:46:16;8.93;;;2.10;;
35042;SDS011;21230;51.170;17.024;2023-02-01T00:48:43;6.43;;;1.70;;
35042;SDS011;21230;51.170;17.024;2023-02-01T00:51:20;9.60;;;2.25;;
35042;SDS011;21230;51.170;17.024;2023-02-01T00:53:47;4.10;;;2.45;;
35042;SDS011;21230;51.170;17.024;2023-02-01T00:56:14;7.53;;;1.38;;
35042;SDS011;21230;51.170;17.024;2023-02-01T00:58:40;5.10;;;1.85;;
35042;SDS011;21230;51.170;17.024;2023-02-01T01:01:07;4.72;;;1.80;;
35042;SDS011;21230;51.170;17.024;2023-02-01T01:03:51;8.95;;;1.60;;
35042;SDS011;21230;51.170;17.024;2023-02-01T01:06:26;10.18;;;2.20;;
35042;SDS011;21230;51.170;17.024;2023-02-01T01:08:54;10.27;;;1.90;;
35042;SDS011;21230;51.170;17.024;2023-02-01T01:11:25;3.00;;;1.38;;
35042;SDS011;21230;51.170;17.024;2023-02-01T01:13:55;6.57;;;1.63;;
35042;SDS011;21230;51.170;17.024;2023-02-01T01:16:22;6.03;;;1.45;;
35042;SDS011;21230;51.170;17.024;2023-02-01T01:18:50;5.38;;;1.50;;
35042;SDS011;21230;51.170;17.024;2023-02-01T01:21:17;10.43;;;2.28;;
35042;SDS011;21230;51.170;17.024;2023-02-01T01:23:44;4.70;;;1.52;;
35042;SDS011;21230;51.170;17.024;2023-02-01T01:26:15;2.03;;;0.77;;
35042;SDS011;21230;51.170;17.024;2023-02-01T01:28:46;4.80;;;1.80;;
35042;SDS011;21230;51.170;17.024;2023-02-01T01:31:12;5.35;;;1.25;;
35042;SDS011;21230;51.170;17.024;2023-02-01T01:33:40;6.00;;;1.65;;
35042;SDS011;21230;51.170;17.024;2023-02-01T01:36:07;7.50;;;1.58;;
35042;SDS011;21230;51.170;17.024;2023-02-01T01:38:36;1.00;;;0.82;;
35042;SDS011;21230;51.170;17.024;2023-02-01T01:41:02;5.07;;;1.75;;
35042;SDS011;21230;51.170;17.024;2023-02-01T01:46:35;5.25;;;1.20;;
35042;SDS011;21230;51.170;17.024;2023-02-01T01:51:39;4.82;;;1.30;;
35042;SDS011;21230;51.170;17.024;2023-02-01T01:54:12;1.40;;;0.75;;
35042;SDS011;21230;51.170;17.024;2023-02-01T01:56:42;6.00;;;0.60;;
35042;SDS011;21230;51.170;17.024;2023-02-01T01:59:14;4.10;;;1.23;;
35042;SDS011;21230;51.170;17.024;2023-02-01T02:01:40;5.40;;;1.42;;
35042;SDS011;21230;51.170;17.024;2023-02-01T02:04:06;7.25;;;1.48;;
35042;SDS011;21230;51.170;17.024;2023-02-01T02:09:03;7.05;;;1.55;;
35042;SDS011;21230;51.170;17.024;2023-02-01T02:11:29;11.15;;;1.73;;
35042;SDS011;21230;51.170;17.024;2023-02-01T02:13:55;2.85;;;1.70;;
35042;SDS011;21230;51.170;17.024;2023-02-01T02:21:43;9.80;;;1.88;;
35042;SDS011;21230;51.170;17.024;2023-02-01T02:24:32;6.10;;;1.55;;
35042;SDS011;21230;51.170;17.024;2023-02-01T02:33:19;11.02;;;2.65;;
35042;SDS011;21230;51.170;17.024;2023-02-01T02:44:26;7.30;;;2.25;;
35042;SDS011;21230;51.170;17.024;2023-02-01T02:47:23;9.55;;;2.28;;
35042;SDS011;21230;51.170;17.024;2023-02-01T02:52:56;12.15;;;2.60;;
35042;SDS011;21230;51.170;17.024;2023-02-01T02:55:45;9.27;;;3.65;;
35042;SDS011;21230;51.170;17.024;2023-02-01T02:58:12;7.80;;;2.45;;
35042;SDS011;21230;51.170;17.024;2023-02-01T03:00:58;6.85;;;2.85;;
35042;SDS011;21230;51.170;17.024;2023-02-01T03:03:43;6.55;;;2.33;;
35042;SDS011;21230;51.170;17.024;2023-02-01T03:06:28;11.88;;;3.50;;
35042;SDS011;21230;51.170;17.024;2023-02-01T03:08:54;8.75;;;2.95;;
35042;SDS011;21230;51.170;17.024;2023-02-01T03:14:09;8.13;;;2.13;;
35042;SDS011;21230;51.170;17.024;2023-02-01T03:16:49;16.77;;;3.40;;
35042;SDS011;21230;51.170;17.024;2023-02-01T03:21:50;9.10;;;2.83;;
35042;SDS011;21230;51.170;17.024;2023-02-01T03:24:44;12.73;;;3.08;;
35042;SDS011;21230;51.170;17.024;2023-02-01T03:27:14;24.97;;;3.63;;
35042;SDS011;21230;51.170;17.024;2023-02-01T03:29:49;8.73;;;2.38;;
35042;SDS011;21230;51.170;17.024;2023-02-01T03:32:16;20.40;;;3.28;;
35042;SDS011;21230;51.170;17.024;2023-02-01T03:34:43;11.10;;;2.97;;
35042;SDS011;21230;51.170;17.024;2023-02-01T03:37:11;13.57;;;2.63;;
35042;SDS011;21230;51.170;17.024;2023-02-01T03:42:28;17.38;;;3.85;;
35042;SDS011;21230;51.170;17.024;2023-02-01T03:47:48;9.40;;;3.00;;
35042;SDS011;21230;51.170;17.024;2023-02-01T03:50:21;21.38;;;3.67;;
35042;SDS011;21230;51.170;17.024;2023-02-01T03:52:58;17.20;;;3.35;;
35042;SDS011;21230;51.170;17.024;2023-02-01T03:55:28;11.80;;;3.95;;
35042;SDS011;21230;51.170;17.024;2023-02-01T04:00:28;13.15;;;3.42;;
35042;SDS011;21230;51.170;17.024;2023-02-01T04:02:54;13.30;;;3.90;;
35042;SDS011;21230;51.170;17.024;2023-02-01T04:05:20;20.60;;;4.20;;
35042;SDS011;21230;51.170;17.024;2023-02-01T04:07:46;20.42;;;4.10;;
35042;SDS011;21230;51.170;17.024;2023-02-01T04:10:12;11.82;;;4.53;;
35042;SDS011;21230;51.170;17.024;2023-02-01T04:12:39;13.93;;;3.70;;
35042;SDS011;21230;51.170;17.024;2023-02-01T04:15:05;13.00;;;3.83;;
35042;SDS011;21230;51.170;17.024;2023-02-01T04:17:31;12.10;;;3.08;;
35042;SDS011;21230;51.170;17.024;2023-02-01T04:19:57;18.08;;;3.30;;
35042;SDS011;21230;51.170;17.024;2023-02-01T04:22:23;19.58;;;3.70;;
35042;SDS011;21230;51.170;17.024;2023-02-01T04:24:49;12.45;;;3.35;;
35042;SDS011;21230;51.170;17.024;2023-02-01T04:27:15;15.40;;;3.42;;
35042;SDS011;21230;51.170;17.024;2023-02-01T04:29:40;15.45;;;3.83;;
35042;SDS011;21230;51.170;17.024;2023-02-01T04:32:06;10.93;;;2.97;;
35042;SDS011;21230;51.170;17.024;2023-02-01T04:34:32;15.40;;;4.30;;
35042;SDS011;21230;51.170;17.024;2023-02-01T04:36:58;22.98;;;5.40;;
35042;SDS011;21230;51.170;17.024;2023-02-01T04:39:24;29.95;;;4.07;;
35042;SDS011;21230;51.170;17.024;2023-02-01T04:41:50;15.85;;;3.70;;
35042;SDS011;21230;51.170;17.024;2023-02-01T04:44:16;15.38;;;3.95;;
35042;SDS011;21230;51.170;17.024;2023-02-01T04:46:44;11.80;;;3.63;;
35042;SDS011;21230;51.170;17.024;2023-02-01T04:49:11;12.45;;;4.03;;
35042;SDS011;21230;51.170;17.024;2023-02-01T04:51:39;9.98;;;3.10;;
35042;SDS011;21230;51.170;17.024;2023-02-01T04:54:05;13.93;;;3.67;;
35042;SDS011;21230;51.170;17.024;2023-02-01T04:56:31;9.45;;;3.15;;
35042;SDS011;21230;51.170;17.024;2023-02-01T04:58:59;6.10;;;3.08;;
35042;SDS011;21230;51.170;17.024;2023-02-01T05:01:27;15.80;;;3.33;;
35042;SDS011;21230;51.170;17.024;2023-02-01T05:03:53;17.05;;;3.60;;
35042;SDS011;21230;51.170;17.024;2023-02-01T05:06:20;9.20;;;3.03;;
35042;SDS011;21230;51.170;17.024;2023-02-01T05:08:46;14.93;;;4.50;;
35042;SDS011;21230;51.170;17.024;2023-02-01T05:11:12;4.72;;;2.40;;
35042;SDS011;21230;51.170;17.024;2023-02-01T05:13:58;22.00;;;4.63;;
35042;SDS011;21230;51.170;17.024;2023-02-01T05:16:24;21.48;;;4.25;;
35042;SDS011;21230;51.170;17.024;2023-02-01T05:18:51;8.15;;;3.05;;
35042;SDS011;21230;51.170;17.024;2023-02-01T05:21:17;6.63;;;2.40;;
35042;SDS011;21230;51.170;17.024;2023-02-01T05:23:43;12.98;;;3.35;;
35042;SDS011;21230;51.170;17.024;2023-02-01T05:26:27;13.05;;;3.80;;
35042;SDS011;21230;51.170;17.024;2023-02-01T05:28:53;8.13;;;3.03;;
35042;SDS011;21230;51.170;17.024;2023-02-01T05:31:19;9.60;;;3.78;;
35042;SDS011;21230;51.170;17.024;2023-02-01T05:33:45;10.70;;;2.63;;
35042;SDS011;21230;51.170;17.024;2023-02-01T05:36:11;10.63;;;3.58;;
35042;SDS011;21230;51.170;17.024;2023-02-01T05:38:37;8.27;;;2.33;;
35042;SDS011;21230;51.170;17.024;2023-02-01T05:41:02;14.13;;;3.38;;
35042;SDS011;21230;51.170;17.024;2023-02-01T05:43:28;12.73;;;3.25;;
35042;SDS011;21230;51.170;17.024;2023-02-01T05:45:54;11.35;;;2.53;;
35042;SDS011;21230;51.170;17.024;2023-02-01T05:48:20;6.75;;;3.00;;
35042;SDS011;21230;51.170;17.024;2023-02-01T05:50:46;28.58;;;4.07;;
35042;SDS011;21230;51.170;17.024;2023-02-01T05:53:12;18.60;;;4.15;;
35042;SDS011;21230;51.170;17.024;2023-02-01T05:55:38;16.98;;;3.00;;
35042;SDS011;21230;51.170;17.024;2023-02-01T05:58:04;17.52;;;3.45;;
35042;SDS011;21230;51.170;17.024;2023-02-01T06:00:30;8.90;;;3.67;;
35042;SDS011;21230;51.170;17.024;2023-02-01T06:02:56;3.63;;;2.40;;
35042;SDS011;21230;51.170;17.024;2023-02-01T06:05:22;11.10;;;3.00;;
35042;SDS011;21230;51.170;17.024;2023-02-01T06:07:48;10.32;;;3.38;;
35042;SDS011;21230;51.170;17.024;2023-02-01T06:10:17;17.40;;;4.00;;
35042;SDS011;21230;51.170;17.024;2023-02-01T06:12:44;9.02;;;3.53;;
35042;SDS011;21230;51.170;17.024;2023-02-01T06:15:10;13.65;;;3.63;;
35042;SDS011;21230;51.170;17.024;2023-02-01T06:17:37;15.60;;;4.00;;
35042;SDS011;21230;51.170;17.024;2023-02-01T06:20:06;18.98;;;3.95;;
35042;SDS011;21230;51.170;17.024;2023-02-01T06:22:32;13.68;;;2.58;;
35042;SDS011;21230;51.170;17.024;2023-02-01T06:25:01;14.13;;;5.35;;
35042;SDS011;21230;51.170;17.024;2023-02-01T06:27:32;21.38;;;3.95;;
35042;SDS011;21230;51.170;17.024;2023-02-01T06:29:59;15.85;;;3.72;;
35042;SDS011;21230;51.170;17.024;2023-02-01T06:32:25;14.35;;;3.47;;
35042;SDS011;21230;51.170;17.024;2023-02-01T06:34:52;17.77;;;4.95;;
35042;SDS011;21230;51.170;17.024;2023-02-01T06:37:18;14.32;;;4.03;;
35042;SDS011;21230;51.170;17.024;2023-02-01T06:39:45;8.68;;;3.22;;
35042;SDS011;21230;51.170;17.024;2023-02-01T06:42:10;14.20;;;3.85;;
35042;SDS011;21230;51.170;17.024;2023-02-01T06:44:36;13.45;;;2.83;;
35042;SDS011;21230;51.170;17.024;2023-02-01T06:47:05;14.98;;;2.42;;
35042;SDS011;21230;51.170;17.024;2023-02-01T06:51:57;34.38;;;3.72;;
35042;SDS011;21230;51.170;17.024;2023-02-01T06:54:25;10.23;;;4.75;;
35042;SDS011;21230;51.170;17.024;2023-02-01T06:56:57;13.88;;;2.65;;
35042;SDS011;21230;51.170;17.024;2023-02-01T06:59:23;8.43;;;3.33;;
35042;SDS011;21230;51.170;17.024;2023-02-01T07:01:49;17.63;;;3.97;;
35042;SDS011;21230;51.170;17.024;2023-02-01T07:04:14;19.92;;;4.40;;
35042;SDS011;21230;51.170;17.024;2023-02-01T07:06:40;23.38;;;3.80;;
35042;SDS011;21230;51.170;17.024;2023-02-01T07:09:07;13.80;;;3.05;;
35042;SDS011;21230;51.170;17.024;2023-02-01T07:11:33;13.10;;;3.47;;
35042;SDS011;21230;51.170;17.024;2023-02-01T07:13:59;12.93;;;2.72;;
35042;SDS011;21230;51.170;17.024;2023-02-01T07:16:27;16.65;;;3.15;;
35042;SDS011;21230;51.170;17.024;2023-02-01T07:18:55;9.67;;;3.03;;
35042;SDS011;21230;51.170;17.024;2023-02-01T07:21:27;14.88;;;3.58;;
35042;SDS011;21230;51.170;17.024;2023-02-01T07:23:54;18.63;;;3.65;;
35042;SDS011;21230;51.170;17.024;2023-02-01T07:26:20;14.32;;;4.35;;
35042;SDS011;21230;51.170;17.024;2023-02-01T07:28:46;17.00;;;3.88;;
35042;SDS011;21230;51.170;17.024;2023-02-01T07:31:15;18.92;;;4.68;;
35042;SDS011;21230;51.170;17.024;2023-02-01T07:33:44;19.50;;;4.50;;
35042;SDS011;21230;51.170;17.024;2023-02-01T07:36:11;8.75;;;3.35;;
35042;SDS011;21230;51.170;17.024;2023-02-01T07:38:38;15.68;;;3.40;;
35042;SDS011;21230;51.170;17.024;2023-02-01T07:41:04;12.98;;;3.25;;
35042;SDS011;21230;51.170;17.024;2023-02-01T07:43:31;16.88;;;3.80;;
35042;SDS011;21230;51.170;17.024;2023-02-01T07:46:01;11.25;;;3.85;;
35042;SDS011;21230;51.170;17.024;2023-02-01T07:48:31;15.13;;;4.88;;
35042;SDS011;21230;51.170;17.024;2023-02-01T07:53:38;16.80;;;4.70;;
35042;SDS011;21230;51.170;17.024;2023-02-01T07:56:09;17.92;;;3.92;;
35042;SDS011;21230;51.170;17.024;2023-02-01T07:58:42;12.48;;;3.05;;
35042;SDS011;21230;51.170;17.024;2023-02-01T08:01:15;10.00;;;3.63;;
35042;SDS011;21230;51.170;17.024;2023-02-01T08:03:50;6.95;;;2.45;;
35042;SDS011;21230;51.170;17.024;2023-02-01T08:06:19;18.05;;;3.42;;
35042;SDS011;21230;51.170;17.024;2023-02-01T08:08:46;16.02;;;4.13;;
35042;SDS011;21230;51.170;17.024;2023-02-01T08:11:12;16.42;;;3.95;;
35042;SDS011;21230;51.170;17.024;2023-02-01T08:13:40;12.27;;;2.58;;
35042;SDS011;21230;51.170;17.024;2023-02-01T08:16:09;17.08;;;3.67;;
35042;SDS011;21230;51.170;17.024;2023-02-01T08:18:37;12.23;;;4.43;;
35042;SDS011;21230;51.170;17.024;2023-02-01T08:21:04;18.65;;;3.03;;
35042;SDS011;21230;51.170;17.024;2023-02-01T08:23:33;11.98;;;3.25;;
35042;SDS011;21230;51.170;17.024;2023-02-01T08:26:13;11.60;;;4.57;;
35042;SDS011;21230;51.170;17.024;2023-02-01T08:28:53;14.07;;;3.90;;
35042;SDS011;21230;51.170;17.024;2023-02-01T08:31:26;22.48;;;4.53;;
35042;SDS011;21230;51.170;17.024;2023-02-01T08:33:54;21.25;;;5.70;;
35042;SDS011;21230;51.170;17.024;2023-02-01T08:36:22;11.20;;;3.83;;
35042;SDS011;21230;51.170;17.024;2023-02-01T08:38:49;15.13;;;4.32;;
35042;SDS011;21230;51.170;17.024;2023-02-01T08:41:17;17.77;;;3.42;;
35042;SDS011;21230;51.170;17.024;2023-02-01T08:43:45;23.42;;;4.32;;
35042;SDS011;21230;51.170;17.024;2023-02-01T08:46:12;18.50;;;4.38;;
35042;SDS011;21230;51.170;17.024;2023-02-01T08:48:39;18.02;;;3.83;;
35042;SDS011;21230;51.170;17.024;2023-02-01T08:51:12;10.40;;;3.97;;
35042;SDS011;21230;51.170;17.024;2023-02-01T08:53:40;13.07;;;4.68;;
35042;SDS011;21230;51.170;17.024;2023-02-01T08:56:06;10.30;;;3.53;;
35042;SDS011;21230;51.170;17.024;2023-02-01T08:58:33;11.13;;;3.58;;
35042;SDS011;21230;51.170;17.024;2023-02-01T09:01:08;22.58;;;3.88;;
35042;SDS011;21230;51.170;17.024;2023-02-01T09:03:36;11.00;;;3.55;;
35042;SDS011;21230;51.170;17.024;2023-02-01T09:06:06;15.52;;;4.50;;
35042;SDS011;21230;51.170;17.024;2023-02-01T09:08:33;12.13;;;3.30;;
35042;SDS011;21230;51.170;17.024;2023-02-01T09:11:00;16.45;;;4.00;;
35042;SDS011;21230;51.170;17.024;2023-02-01T09:13:27;12.73;;;3.50;;
35042;SDS011;21230;51.170;17.024;2023-02-01T09:15:53;18.55;;;4.43;;
35042;SDS011;21230;51.170;17.024;2023-02-01T09:18:19;14.23;;;3.22;;
35042;SDS011;21230;51.170;17.024;2023-02-01T09:20:45;14.55;;;4.03;;
35042;SDS011;21230;51.170;17.024;2023-02-01T09:23:11;18.85;;;4.07;;
35042;SDS011;21230;51.170;17.024;2023-02-01T09:25:37;9.60;;;3.50;;
35042;SDS011;21230;51.170;17.024;2023-02-01T09:28:03;13.80;;;3.72;;
35042;SDS011;21230;51.170;17.024;2023-02-01T09:30:31;6.80;;;3.28;;
35042;SDS011;21230;51.170;17.024;2023-02-01T09:32:58;14.65;;;3.92;;
35042;SDS011;21230;51.170;17.024;2023-02-01T09:35:24;8.45;;;2.65;;
35042;SDS011;21230;51.170;17.024;2023-02-01T09:37:51;12.07;;;4.22;;
35042;SDS011;21230;51.170;17.024;2023-02-01T09:40:17;6.53;;;3.38;;
35042;SDS011;21230;51.170;17.024;2023-02-01T09:45:18;6.78;;;2.88;;
35042;SDS011;21230;51.170;17.024;2023-02-01T09:47:51;11.73;;;2.55;;
35042;SDS011;21230;51.170;17.024;2023-02-01T09:50:21;16.40;;;2.70;;
35042;SDS011;21230;51.170;17.024;2023-02-01T09:52:58;11.02;;;3.45;;
35042;SDS011;21230;51.170;17.024;2023-02-01T09:55:39;9.75;;;3.50;;
35042;SDS011;21230;51.170;17.024;2023-02-01T09:58:11;11.85;;;3.05;;
35042;SDS011;21230;51.170;17.024;2023-02-01T10:00:52;7.30;;;2.95;;
35042;SDS011;21230;51.170;17.024;2023-02-01T10:03:19;6.18;;;2.60;;
35042;SDS011;21230;51.170;17.024;2023-02-01T10:08:55;5.75;;;3.10;;
35042;SDS011;21230;51.170;17.024;2023-02-01T10:11:42;7.68;;;3.30;;
35042;SDS011;21230;51.170;17.024;2023-02-01T10:14:46;13.85;;;3.53;;
35042;SDS011;21230;51.170;17.024;2023-02-01T10:20:24;12.40;;;3.63;;
35042;SDS011;21230;51.170;17.024;2023-02-01T10:29:13;8.23;;;3.55;;
35042;SDS011;21230;51.170;17.024;2023-02-01T10:31:49;8.43;;;2.78;;
35042;SDS011;21230;51.170;17.024;2023-02-01T10:34:26;8.63;;;2.97;;
35042;SDS011;21230;51.170;17.024;2023-02-01T10:39:45;9.27;;;3.58;;
35042;SDS011;21230;51.170;17.024;2023-02-01T10:42:13;14.27;;;4.50;;
35042;SDS011;21230;51.170;17.024;2023-02-01T10:44:42;6.18;;;2.20;;
35042;SDS011;21230;51.170;17.024;2023-02-01T10:47:10;8.68;;;3.90;;
35042;SDS011;21230;51.170;17.024;2023-02-01T10:52:59;20.05;;;5.65;;
35042;SDS011;21230;51.170;17.024;2023-02-01T10:55:38;8.75;;;3.05;;
35042;SDS011;21230;51.170;17.024;2023-02-01T10:58:30;7.43;;;3.05;;
35042;SDS011;21230;51.170;17.024;2023-02-01T11:01:04;8.57;;;3.38;;
35042;SDS011;21230;51.170;17.024;2023-02-01T11:06:10;10.85;;;3.58;;
35042;SDS011;21230;51.170;17.024;2023-02-01T11:08:49;5.18;;;3.10;;
35042;SDS011;21230;51.170;17.024;2023-02-01T11:11:17;10.10;;;4.03;;
35042;SDS011;21230;51.170;17.024;2023-02-01T11:13:43;10.85;;;3.35;;
35042;SDS011;21230;51.170;17.024;2023-02-01T11:16:16;11.07;;;3.85;;
35042;SDS011;21230;51.170;17.024;2023-02-01T11:18:45;12.18;;;3.90;;
35042;SDS011;21230;51.170;17.024;2023-02-01T11:21:20;8.13;;;3.13;;
35042;SDS011;21230;51.170;17.024;2023-02-01T11:23:48;9.50;;;3.10;;
35042;SDS011;21230;51.170;17.024;2023-02-01T11:26:24;8.57;;;3.90;;
35042;SDS011;21230;51.170;17.024;2023-02-01T11:28:52;7.00;;;3.15;;
35042;SDS011;21230;51.170;17.024;2023-02-01T11:31:25;12.05;;;3.97;;
35042;SDS011;21230;51.170;17.024;2023-02-01T11:33:53;10.57;;;3.50;;
35042;SDS011;21230;51.170;17.024;2023-02-01T11:36:28;9.05;;;2.38;;
35042;SDS011;21230;51.170;17.024;2023-02-01T11:39:14;8.95;;;3.50;;
35042;SDS011;21230;51.170;17.024;2023-02-01T11:44:38;8.63;;;2.70;;
35042;SDS011;21230;51.170;17.024;2023-02-01T11:47:51;6.93;;;3.00;;
35042;SDS011;21230;51.170;17.024;2023-02-01T11:49:54;10.90;;;3.25;;
35042;SDS011;21230;51.170;17.024;2023-02-01T11:55:36;5.40;;;2.88;;
35042;SDS011;21230;51.170;17.024;2023-02-01T12:01:24;9.77;;;3.15;;
35042;SDS011;21230;51.170;17.024;2023-02-01T12:15:03;6.28;;;3.17;;
35042;SDS011;21230;51.170;17.024;2023-02-01T12:39:42;6.07;;;2.10;;
35042;SDS011;21230;51.170;17.024;2023-02-01T12:42:39;10.20;;;2.60;;
35042;SDS011;21230;51.170;17.024;2023-02-01T12:48:04;6.82;;;3.13;;
35042;SDS011;21230;51.170;17.024;2023-02-01T12:50:39;5.90;;;3.05;;
35042;SDS011;21230;51.170;17.024;2023-02-01T12:53:15;8.38;;;2.08;;
35042;SDS011;21230;51.170;17.024;2023-02-01T12:56:00;6.25;;;2.65;;
35042;SDS011;21230;51.170;17.024;2023-02-01T12:58:45;3.75;;;2.30;;
35042;SDS011;21230;51.170;17.024;2023-02-01T13:04:04;5.97;;;2.33;;
35042;SDS011;21230;51.170;17.024;2023-02-01T13:09:51;4.28;;;2.83;;
35042;SDS011;21230;51.170;17.024;2023-02-01T13:17:57;7.93;;;3.05;;
35042;SDS011;21230;51.170;17.024;2023-02-01T13:20:50;5.60;;;2.17;;
35042;SDS011;21230;51.170;17.024;2023-02-01T13:26:16;5.03;;;2.25;;
35042;SDS011;21230;51.170;17.024;2023-02-01T13:39:52;2.75;;;1.92;;
35042;SDS011;21230;51.170;17.024;2023-02-01T13:42:31;7.82;;;2.50;;
35042;SDS011;21230;51.170;17.024;2023-02-01T13:45:14;3.40;;;2.05;;
35042;SDS011;21230;51.170;17.024;2023-02-01T13:47:52;7.07;;;1.88;;
35042;SDS011;21230;51.170;17.024;2023-02-01T13:50:24;8.07;;;1.95;;
35042;SDS011;21230;51.170;17.024;2023-02-01T13:55:41;6.13;;;2.15;;
35042;SDS011;21230;51.170;17.024;2023-02-01T13:58:21;4.03;;;2.22;;
35042;SDS011;21230;51.170;17.024;2023-02-01T14:03:53;3.22;;;1.80;;
35042;SDS011;21230;51.170;17.024;2023-02-01T14:09:37;7.75;;;3.88;;
35042;SDS011;21230;51.170;17.024;2023-02-01T14:11:54;6.80;;;2.08;;
35042;SDS011;21230;51.170;17.024;2023-02-01T14:19:19;7.20;;;1.63;;
35042;SDS011;21230;51.170;17.024;2023-02-01T14:21:54;9.60;;;2.20;;
35042;SDS011;21230;51.170;17.024;2023-02-01T14:24:52;6.28;;;1.73;;
35042;SDS011;21230;51.170;17.024;2023-02-01T14:27:23;10.20;;;2.80;;
35042;SDS011;21230;51.170;17.024;2023-02-01T14:29:52;7.45;;;2.00;;
35042;SDS011;21230;51.170;17.024;2023-02-01T14:32:38;2.90;;;2.25;;
35042;SDS011;21230;51.170;17.024;2023-02-01T14:35:07;7.05;;;1.83;;
35042;SDS011;21230;51.170;17.024;2023-02-01T14:37:43;9.52;;;4.55;;
35042;SDS011;21230;51.170;17.024;2023-02-01T14:47:50;5.03;;;1.88;;
35042;SDS011;21230;51.170;17.024;2023-02-01T14:55:37;9.65;;;3.83;;
35042;SDS011;21230;51.170;17.024;2023-02-01T14:58:05;6.97;;;2.97;;
35042;SDS011;21230;51.170;17.024;2023-02-01T15:00:52;8.25;;;3.10;;
35042;SDS011;21230;51.170;17.024;2023-02-01T15:03:34;3.58;;;1.85;;
35042;SDS011;21230;51.170;17.024;2023-02-01T15:06:13;2.15;;;1.95;;
35042;SDS011;21230;51.170;17.024;2023-02-01T15:08:52;4.18;;;1.70;;
35042;SDS011;21230;51.170;17.024;2023-02-01T15:11:21;5.70;;;2.17;;
35042;SDS011;21230;51.170;17.024;2023-02-01T15:13:50;6.10;;;2.53;;
35042;SDS011;21230;51.170;17.024;2023-02-01T15:16:20;5.72;;;2.88;;
35042;SDS011;21230;51.170;17.024;2023-02-01T15:18:47;8.38;;;2.47;;
35042;SDS011;21230;51.170;17.024;2023-02-01T15:21:23;5.80;;;2.58;;
35042;SDS011;21230;51.170;17.024;2023-02-01T15:23:50;7.45;;;2.95;;
35042;SDS011;21230;51.170;17.024;2023-02-01T15:26:36;8.70;;;3.15;;
35042;SDS011;21230;51.170;17.024;2023-02-01T15:29:02;4.72;;;2.30;;
35042;SDS011;21230;51.170;17.024;2023-02-01T15:31:32;8.77;;;2.60;;
35042;SDS011;21230;51.170;17.024;2023-02-01T15:34:01;4.43;;;2.72;;
35042;SDS011;21230;51.170;17.024;2023-02-01T15:36:27;19.38;;;3.40;;
35042;SDS011;21230;51.170;17.024;2023-02-01T15:41:55;5.45;;;2.75;;
35042;SDS011;21230;51.170;17.024;2023-02-01T15:46:54;15.60;;;4.85;;
35042;SDS011;21230;51.170;17.024;2023-02-01T15:49:23;8.88;;;2.72;;
35042;SDS011;21230;51.170;17.024;2023-02-01T15:51:54;11.02;;;3.42;;
35042;SDS011;21230;51.170;17.024;2023-02-01T15:54:28;9.55;;;4.00;;
35042;SDS011;21230;51.170;17.024;2023-02-01T15:57:00;16.70;;;3.85;;
35042;SDS011;21230;51.170;17.024;2023-02-01T15:59:32;9.20;;;3.38;;
35042;SDS011;21230;51.170;17.024;2023-02-01T16:02:05;11.95;;;4.32;;
35042;SDS011;21230;51.170;17.024;2023-02-01T16:07:23;14.60;;;4.50;;
35042;SDS011;21230;51.170;17.024;2023-02-01T16:09:53;9.07;;;3.78;;
35042;SDS011;21230;51.170;17.024;2023-02-01T16:14:53;5.40;;;3.17;;
35042;SDS011;21230;51.170;17.024;2023-02-01T16:17:18;7.35;;;3.30;;
35042;SDS011;21230;51.170;17.024;2023-02-01T16:19:44;6.97;;;2.70;;
35042;SDS011;21230;51.170;17.024;2023-02-01T16:22:10;12.50;;;3.08;;
35042;SDS011;21230;51.170;17.024;2023-02-01T16:24:37;2.78;;;2.22;;
35042;SDS011;21230;51.170;17.024;2023-02-01T16:27:03;9.02;;;3.13;;
35042;SDS011;21230;51.170;17.024;2023-02-01T16:29:32;8.43;;;3.38;;
35042;SDS011;21230;51.170;17.024;2023-02-01T16:31:58;5.82;;;3.15;;
35042;SDS011;21230;51.170;17.024;2023-02-01T16:34:25;6.07;;;1.88;;
35042;SDS011;21230;51.170;17.024;2023-02-01T16:36:51;9.07;;;3.05;;
35042;SDS011;21230;51.170;17.024;2023-02-01T16:39:19;4.68;;;3.50;;
35042;SDS011;21230;51.170;17.024;2023-02-01T16:41:47;7.57;;;3.35;;
35042;SDS011;21230;51.170;17.024;2023-02-01T16:44:13;8.32;;;3.42;;
35042;SDS011;21230;51.170;17.024;2023-02-01T16:46:40;6.53;;;3.50;;
35042;SDS011;21230;51.170;17.024;2023-02-01T16:49:17;8.38;;;4.20;;
35042;SDS011;21230;51.170;17.024;2023-02-01T16:51:49;7.22;;;3.70;;
35042;SDS011;21230;51.170;17.024;2023-02-01T16:54:18;15.30;;;4.50;;
35042;SDS011;21230;51.170;17.024;2023-02-01T16:56:44;18.40;;;8.00;;
35042;SDS011;21230;51.170;17.024;2023-02-01T16:59:11;23.40;;;7.45;;
35042;SDS011;21230;51.170;17.024;2023-02-01T17:01:38;17.48;;;5.15;;
35042;SDS011;21230;51.170;17.024;2023-02-01T17:04:07;10.68;;;5.05;;
35042;SDS011;21230;51.170;17.024;2023-02-01T17:06:34;16.83;;;6.47;;
35042;SDS011;21230;51.170;17.024;2023-02-01T17:09:04;10.95;;;4.85;;
35042;SDS011;21230;51.170;17.024;2023-02-01T17:11:33;7.78;;;4.35;;
35042;SDS011;21230;51.170;17.024;2023-02-01T17:14:01;21.05;;;5.50;;
35042;SDS011;21230;51.170;17.024;2023-02-01T17:16:41;8.07;;;4.88;;
35042;SDS011;21230;51.170;17.024;2023-02-01T17:19:15;8.68;;;4.53;;
35042;SDS011;21230;51.170;17.024;2023-02-01T17:21:45;25.95;;;9.90;;
35042;SDS011;21230;51.170;17.024;2023-02-01T17:24:15;13.07;;;6.88;;
35042;SDS011;21230;51.170;17.024;2023-02-01T17:26:42;15.45;;;5.95;;
35042;SDS011;21230;51.170;17.024;2023-02-01T17:29:09;12.98;;;6.28;;
35042;SDS011;21230;51.170;17.024;2023-02-01T17:31:37;12.65;;;6.32;;
35042;SDS011;21230;51.170;17.024;2023-02-01T17:34:10;19.15;;;8.05;;
35042;SDS011;21230;51.170;17.024;2023-02-01T17:36:41;22.23;;;13.15;;
35042;SDS011;21230;51.170;17.024;2023-02-01T17:39:07;18.25;;;7.90;;
35042;SDS011;21230;51.170;17.024;2023-02-01T17:41:35;23.38;;;9.77;;
35042;SDS011;21230;51.170;17.024;2023-02-01T17:44:02;27.50;;;16.77;;
35042;SDS011;21230;51.170;17.024;2023-02-01T17:46:31;16.60;;;10.35;;
35042;SDS011;21230;51.170;17.024;2023-02-01T17:48:57;28.42;;;11.95;;